Time;durP1;ratioP1;P1;durP2;ratioP2;P2;SDS_P1;SDS_P2;PMS_P1;PMS_P2;Temp;Humidity;BMP_temperature;BMP_pressure;BME280_temperature;BME280_humidity;BME280_pressure;Samples;Min_cycle;Max_cycle;Signal;HPM_P1;HPM_P2
2022/01/02 00:02:20;;;;;;;2.23;2.03;;;11.30;99.90;;;;;;5065860;28;20442;-67
2022/01/02 00:04:52;;;;;;;3.73;3.30;;;11.30;99.90;;;;;;5050215;28;20497;-66
2022/01/02 00:07:44;;;;;;;3.27;2.90;;;11.30;99.90;;;;;;5070524;28;20885;-68
2022/01/02 00:10:58;;;;;;;3.70;3.40;;;11.30;99.90;;;;;;5065996;28;20473;-67
2022/01/02 00:13:44;;;;;;;3.20;2.90;;;11.30;99.90;;;;;;5070277;28;20967;-67
2022/01/02 00:16:32;;;;;;;3.30;2.80;;;11.30;99.90;;;;;;5059834;28;20478;-67
2022/01/02 00:19:19;;;;;;;3.73;3.17;;;11.30;99.90;;;;;;5054642;28;20497;-65
2022/01/02 00:21:54;;;;;;;4.53;3.33;;;11.30;99.90;;;;;;5064380;28;20451;-66
2022/01/02 00:24:30;;;;;;;2.90;2.53;;;11.30;99.90;;;;;;5051577;28;20467;-66
2022/01/02 00:27:15;;;;;;;2.37;2.07;;;11.30;99.90;;;;;;5066527;28;20444;-67
2022/01/02 00:30:07;;;;;;;3.60;2.73;;;11.30;99.90;;;;;;5054971;28;20479;-67
2022/01/02 00:32:43;;;;;;;3.00;2.73;;;11.30;99.90;;;;;;5050881;28;20436;-67
2022/01/02 00:35:20;;;;;;;3.53;3.23;;;11.30;99.90;;;;;;5055998;28;20511;-67
2022/01/02 00:37:56;;;;;;;4.97;4.37;;;11.30;99.90;;;;;;5074214;28;20421;-66
2022/01/02 00:40:34;;;;;;;3.07;2.77;;;11.30;99.90;;;;;;5069913;28;20515;-67
2022/01/02 00:43:21;;;;;;;2.97;2.67;;;11.30;99.90;;;;;;5055852;28;20436;-67
2022/01/02 00:46:13;;;;;;;3.37;3.07;;;11.30;99.90;;;;;;5069798;28;20571;-66
2022/01/02 00:48:50;;;;;;;2.73;2.50;;;11.30;99.90;;;;;;5071706;28;20493;-66
2022/01/02 00:51:36;;;;;;;3.40;3.10;;;11.30;99.90;;;;;;5068213;28;20519;-67
2022/01/02 00:54:38;;;;;;;2.60;2.40;;;11.30;99.90;;;;;;5069772;28;20466;-66
2022/01/02 00:57:34;;;;;;;2.90;1.60;;;11.30;99.90;;;;;;5052906;28;20558;-66
2022/01/02 01:00:31;;;;;;;3.20;2.10;;;11.30;99.90;;;;;;5061914;28;20475;-67
2022/01/02 01:06:41;;;;;;;3.20;2.90;;;11.30;99.90;;;;;;5060874;28;20457;-67
2022/01/02 01:09:14;;;;;;;2.53;2.03;;;11.30;99.90;;;;;;5052719;28;20585;-66
2022/01/02 01:12:10;;;;;;;2.10;2.00;;;11.30;99.90;;;;;;5053464;28;20444;-67
2022/01/02 01:14:46;;;;;;;2.70;2.40;;;11.30;99.90;;;;;;5060088;28;20464;-66
2022/01/02 01:17:36;;;;;;;2.27;1.90;;;11.30;99.90;;;;;;5048530;28;20536;-66
2022/01/02 01:20:54;;;;;;;2.50;2.30;;;11.30;99.90;;;;;;5054935;28;20545;-68
2022/01/02 01:23:41;;;;;;;2.57;2.10;;;11.30;99.90;;;;;;5067356;28;20467;-67
2022/01/02 01:26:41;;;;;;;2.40;2.07;;;11.30;99.90;;;;;;5050106;28;20462;-68
2022/01/02 01:29:20;;;;;;;2.23;2.03;;;11.30;99.90;;;;;;5048672;28;20483;-67
2022/01/02 01:32:10;;;;;;;2.07;1.90;;;11.30;99.90;;;;;;5028972;28;20438;-66
2022/01/02 01:34:41;;;;;;;2.10;1.90;;;11.30;99.90;;;;;;5015466;28;20471;-66
2022/01/02 01:37:13;;;;;;;2.20;2.00;;;11.30;99.90;;;;;;5067586;28;20473;-66
2022/01/02 01:39:51;;;;;;;3.50;2.13;;;11.30;99.90;;;;;;5057241;28;20477;-67
2022/01/02 01:42:37;;;;;;;4.60;3.70;;;11.30;99.90;;;;;;5067061;28;20446;-66
2022/01/02 01:45:33;;;;;;;3.20;2.30;;;11.30;99.90;;;;;;5057789;28;20466;-66
2022/01/02 01:48:12;;;;;;;3.20;2.87;;;11.30;99.90;;;;;;5060344;28;20434;-67
2022/01/02 01:50:43;;;;;;;4.27;2.10;;;11.30;99.90;;;;;;5067745;28;20439;-67
2022/01/02 01:53:27;;;;;;;3.60;2.60;;;11.30;99.90;;;;;;5050478;28;20470;-67
2022/01/02 01:56:27;;;;;;;2.57;2.30;;;11.30;99.90;;;;;;5047321;28;20456;-67
2022/01/02 01:59:34;;;;;;;2.27;2.00;;;11.30;99.90;;;;;;5027057;28;20456;-67
2022/01/02 02:02:24;;;;;;;2.97;2.43;;;11.30;99.90;;;;;;5053456;28;20593;-67
2022/01/02 02:05:02;;;;;;;2.67;2.23;;;11.30;99.90;;;;;;5072521;28;20569;-66
2022/01/02 02:07:40;;;;;;;3.70;2.60;;;11.30;99.90;;;;;;5057871;28;20963;-69
2022/01/02 02:10:24;;;;;;;2.93;2.30;;;11.30;99.90;;;;;;5054674;28;20469;-68
2022/01/02 02:13:04;;;;;;;2.53;2.33;;;11.30;99.90;;;;;;5067257;28;20439;-68
2022/01/02 02:16:06;;;;;;;3.90;3.43;;;11.30;99.90;;;;;;5086083;28;21078;-67
2022/01/02 02:18:55;;;;;;;3.13;2.37;;;11.30;99.90;;;;;;5049479;28;20468;-66
2022/01/02 02:21:50;;;;;;;7.20;3.10;;;11.30;99.90;;;;;;5050907;28;20512;-67
2022/01/02 02:24:29;;;;;;;3.10;2.40;;;11.30;99.90;;;;;;5069774;28;20501;-67
2022/01/02 02:27:12;;;;;;;2.20;2.00;;;11.30;99.90;;;;;;5081551;28;20432;-67
2022/01/02 02:30:02;;;;;;;2.70;2.30;;;11.30;99.90;;;;;;5078708;28;20569;-66
2022/01/02 02:32:57;;;;;;;2.60;2.17;;;11.30;99.90;;;;;;5037739;28;20848;-68
2022/01/02 02:35:35;;;;;;;3.10;2.20;;;11.30;99.90;;;;;;5029412;28;20467;-66
2022/01/02 02:38:38;;;;;;;3.33;3.03;;;11.30;99.90;;;;;;5042385;28;20835;-67
2022/01/02 02:44:35;;;;;;;3.10;2.80;;;11.30;99.90;;;;;;5059138;28;20466;-66
2022/01/02 02:50:20;;;;;;;3.10;2.73;;;11.30;99.90;;;;;;4996250;28;20835;-69
2022/01/02 02:52:56;;;;;;;4.40;2.90;;;11.30;99.90;;;;;;5045360;28;20810;-67
2022/01/02 02:55:31;;;;;;;5.30;2.93;;;11.30;99.90;;;;;;5046109;28;20472;-66
2022/01/02 03:01:04;;;;;;;3.00;2.30;;;11.20;99.90;;;;;;5047053;28;20444;-68
2022/01/02 03:03:52;;;;;;;4.97;4.10;;;11.30;99.90;;;;;;5005558;28;20524;-66
2022/01/02 03:06:49;;;;;;;3.10;2.90;;;11.30;99.90;;;;;;5019605;28;20448;-66
2022/01/02 03:09:37;;;;;;;3.10;2.80;;;11.30;99.90;;;;;;5051910;28;20539;-67
2022/01/02 03:12:26;;;;;;;;;;;;;;;;;;;;;
2022/01/02 03:15:11;;;;;;;4.23;2.10;;;11.30;99.90;;;;;;5025120;28;21003;-65
2022/01/02 03:17:49;;;;;;;3.17;2.80;;;11.30;99.90;;;;;;5040884;28;20560;-67
2022/01/02 03:20:20;;;;;;;3.27;2.97;;;11.30;99.90;;;;;;5029062;28;20461;-67
2022/01/02 03:26:23;;;;;;;2.87;2.60;;;11.30;99.90;;;;;;5031684;28;20983;-67
2022/01/02 03:28:58;;;;;;;2.80;2.33;;;11.30;99.90;;;;;;5025716;28;20478;-66
2022/01/02 03:31:41;;;;;;;3.30;2.47;;;11.20;99.90;;;;;;5046423;28;20442;-67
2022/01/02 03:34:14;;;;;;;2.87;2.50;;;11.30;99.90;;;;;;5033770;28;21043;-67
2022/01/02 03:36:52;;;;;;;3.33;3.03;;;11.20;99.90;;;;;;5058228;28;20435;-68
2022/01/02 03:39:32;;;;;;;2.87;2.57;;;11.20;99.90;;;;;;5046743;28;20467;-67
2022/01/02 03:42:26;;;;;;;2.80;2.53;;;11.20;99.90;;;;;;4952974;29;20481;-67
2022/01/02 03:45:04;;;;;;;3.50;2.93;;;11.20;99.90;;;;;;4933385;28;20479;-68
2022/01/02 03:47:39;;;;;;;2.67;2.00;;;11.20;99.90;;;;;;4968748;28;20443;-67
2022/01/02 03:50:14;;;;;;;3.40;2.60;;;11.20;99.90;;;;;;4957886;28;20466;-67
2022/01/02 03:52:44;;;;;;;4.43;3.10;;;11.20;99.90;;;;;;4944723;28;20441;-67
2022/01/02 03:55:26;;;;;;;3.63;2.57;;;11.20;99.90;;;;;;4939706;28;20481;-68
2022/01/02 03:58:05;;;;;;;3.00;2.10;;;11.20;99.90;;;;;;4934537;29;20472;-67
2022/01/02 04:00:39;;;;;;;2.97;2.23;;;11.20;99.90;;;;;;4947084;28;21001;-67
2022/01/02 04:03:08;;;;;;;2.70;2.50;;;11.20;99.90;;;;;;4930816;28;20441;-67
2022/01/02 04:05:49;;;;;;;2.20;2.00;;;11.20;99.90;;;;;;4953226;28;20474;-68
2022/01/02 04:08:28;;;;;;;2.83;2.63;;;11.20;99.90;;;;;;4952937;28;20464;-67
2022/01/02 04:11:10;;;;;;;4.43;3.13;;;11.20;99.90;;;;;;4943991;28;20945;-68
2022/01/02 04:13:47;;;;;;;2.27;1.93;;;11.20;99.90;;;;;;4914637;29;21209;-67
2022/01/02 04:16:25;;;;;;;2.40;2.20;;;11.20;99.90;;;;;;4945942;28;20458;-68
2022/01/02 04:19:07;;;;;;;4.90;3.10;;;11.20;99.90;;;;;;4959468;28;20475;-65
2022/01/02 04:21:55;;;;;;;2.27;2.07;;;11.20;99.90;;;;;;5013934;28;20539;-69
2022/01/02 04:24:27;;;;;;;4.70;3.30;;;11.20;99.90;;;;;;5061211;28;20514;-67
2022/01/02 04:27:09;;;;;;;3.57;3.27;;;11.20;99.90;;;;;;5038843;28;20436;-67
2022/01/02 04:30:07;;;;;;;5.90;3.00;;;11.20;99.90;;;;;;5052351;28;20585;-68
2022/01/02 04:33:01;;;;;;;;;;;;;;;;;;;;;
2022/01/02 04:35:39;;;;;;;4.23;2.77;;;11.20;99.90;;;;;;5028427;28;20465;-67
2022/01/02 04:38:22;;;;;;;3.23;2.60;;;11.20;99.90;;;;;;5037452;28;20470;-67
2022/01/02 04:40:54;;;;;;;3.20;2.50;;;11.20;99.90;;;;;;5049266;28;20534;-66
2022/01/02 04:43:26;;;;;;;2.57;2.37;;;11.20;99.90;;;;;;5047704;28;20448;-66
2022/01/02 04:46:03;;;;;;;4.83;2.67;;;11.20;99.90;;;;;;5049002;28;20448;-66
2022/01/02 04:48:50;;;;;;;2.60;2.33;;;11.20;99.90;;;;;;5028773;28;20476;-66
2022/01/02 04:51:27;;;;;;;2.43;2.20;;;11.20;99.90;;;;;;5009637;28;20440;-66
2022/01/02 04:54:01;;;;;;;2.83;2.10;;;11.20;99.90;;;;;;5010644;28;20469;-67
2022/01/02 04:56:30;;;;;;;3.73;2.33;;;11.20;99.90;;;;;;5029855;28;20444;-67
2022/01/02 04:59:06;;;;;;;2.70;2.10;;;11.20;99.90;;;;;;5031748;28;20487;-66
2022/01/02 05:01:45;;;;;;;2.23;1.90;;;11.20;99.90;;;;;;5053618;28;20466;-66
2022/01/02 05:04:46;;;;;;;2.37;2.17;;;11.20;99.90;;;;;;5037118;28;20456;-68
2022/01/02 05:07:32;;;;;;;2.33;2.10;;;11.20;99.90;;;;;;5034488;28;20448;-67
2022/01/02 05:10:17;;;;;;;2.93;2.63;;;11.20;99.90;;;;;;5047054;28;20998;-68
2022/01/02 05:16:09;;;;;;;4.20;2.90;;;11.20;99.90;;;;;;5042173;28;20548;-67
2022/01/02 05:18:54;;;;;;;2.47;1.87;;;11.20;99.90;;;;;;5028000;28;20471;-66
2022/01/02 05:21:31;;;;;;;3.13;2.70;;;11.10;99.90;;;;;;5033955;28;20446;-67
2022/01/02 05:24:06;;;;;;;2.57;2.17;;;11.20;99.90;;;;;;5044844;28;20471;-66
2022/01/02 05:26:56;;;;;;;3.57;2.87;;;11.10;99.90;;;;;;5028727;28;20445;-67
2022/01/02 05:29:28;;;;;;;2.73;2.37;;;11.10;99.90;;;;;;5060867;28;20476;-66
2022/01/02 05:31:58;;;;;;;2.30;2.10;;;11.10;99.90;;;;;;5061894;28;20515;-68
2022/01/02 05:34:30;;;;;;;3.30;2.90;;;11.10;99.90;;;;;;5015330;28;20482;-67
2022/01/02 05:37:01;;;;;;;4.37;2.40;;;11.10;99.90;;;;;;5046196;28;20432;-67
2022/01/02 05:39:51;;;;;;;2.70;2.07;;;11.10;99.90;;;;;;5047331;28;20528;-67
2022/01/02 05:42:32;;;;;;;3.20;3.00;;;11.10;99.90;;;;;;5033009;28;20439;-66
2022/01/02 05:45:21;;;;;;;;;;;;;;;;;;;;;
2022/01/02 05:47:58;;;;;;;3.33;2.97;;;11.10;99.90;;;;;;5050360;28;21073;-68
2022/01/02 05:50:40;;;;;;;2.93;2.37;;;11.10;99.90;;;;;;5046216;28;20454;-67
2022/01/02 05:53:16;;;;;;;2.87;2.57;;;11.10;99.90;;;;;;5039586;28;20494;-67
2022/01/02 05:55:46;;;;;;;5.47;2.20;;;11.10;99.90;;;;;;5045566;28;20821;-67
2022/01/02 05:58:44;;;;;;;5.43;2.27;;;11.10;99.90;;;;;;5027442;28;20468;-67
2022/01/02 06:01:22;;;;;;;3.97;2.90;;;11.10;99.90;;;;;;5027694;28;20445;-66
2022/01/02 06:04:03;;;;;;;2.90;2.57;;;11.10;99.90;;;;;;5059385;28;20470;-67
2022/01/02 06:06:40;;;;;;;3.53;2.97;;;11.10;99.90;;;;;;5060223;28;20472;-67
2022/01/02 06:09:30;;;;;;;4.20;2.87;;;11.10;99.90;;;;;;5028297;28;20474;-66
2022/01/02 06:12:31;;;;;;;2.67;2.37;;;11.10;99.90;;;;;;5027867;28;20439;-67
2022/01/02 06:15:24;;;;;;;3.43;3.13;;;11.10;99.90;;;;;;5023870;28;20551;-67
2022/01/02 06:18:08;;;;;;;3.77;2.67;;;11.10;99.90;;;;;;5044182;28;20443;-67
2022/01/02 06:20:44;;;;;;;2.90;2.50;;;11.10;99.90;;;;;;5027433;28;20455;-69
2022/01/02 06:23:28;;;;;;;4.67;2.67;;;11.10;99.90;;;;;;5048176;28;20988;-67
2022/01/02 06:26:04;;;;;;;2.60;2.17;;;11.10;99.90;;;;;;5039046;28;20465;-67
2022/01/02 06:28:43;;;;;;;2.93;2.63;;;11.10;99.90;;;;;;5031899;28;20467;-66
2022/01/02 06:31:24;;;;;;;4.00;2.73;;;11.10;99.90;;;;;;5066342;28;20946;-66
2022/01/02 06:37:04;;;;;;;2.93;2.63;;;11.10;99.90;;;;;;5040993;28;20457;-67
2022/01/02 06:40:18;;;;;;;4.03;2.57;;;11.10;99.90;;;;;;5036970;28;20887;-66
2022/01/02 06:42:50;;;;;;;3.47;2.73;;;11.10;99.90;;;;;;5021480;28;20995;-66
2022/01/02 06:45:42;;;;;;;2.70;2.50;;;11.10;99.90;;;;;;5027331;28;20481;-66
2022/01/02 06:48:37;;;;;;;3.63;2.47;;;11.10;99.90;;;;;;5044807;28;20476;-66
2022/01/02 06:51:07;;;;;;;4.03;3.27;;;11.10;99.90;;;;;;5025675;28;20474;-66
2022/01/02 06:53:44;;;;;;;2.90;2.30;;;11.10;99.90;;;;;;5026137;28;20460;-66
2022/01/02 06:56:27;;;;;;;4.10;2.90;;;11.10;99.90;;;;;;5059718;28;20458;-66
2022/01/02 06:59:03;;;;;;;2.77;2.57;;;11.10;99.90;;;;;;5027483;28;20503;-67
2022/01/02 07:01:34;;;;;;;6.13;2.90;;;11.10;99.90;;;;;;5044607;28;20519;-66
2022/01/02 07:04:03;;;;;;;3.37;3.07;;;11.10;99.90;;;;;;5043772;28;20478;-66
2022/01/02 07:06:50;;;;;;;3.00;2.70;;;11.10;99.90;;;;;;5046481;28;20426;-67
2022/01/02 07:09:43;;;;;;;3.40;2.70;;;11.10;99.90;;;;;;5043948;28;20582;-68
2022/01/02 07:12:13;;;;;;;3.07;2.77;;;11.10;99.90;;;;;;5045857;28;20565;-66
2022/01/02 07:15:02;;;;;;;2.50;2.10;;;11.10;99.90;;;;;;5047987;28;20510;-67
2022/01/02 07:17:53;;;;;;;3.93;2.93;;;11.10;99.90;;;;;;5026804;28;20432;-66
2022/01/02 07:20:25;;;;;;;2.77;2.53;;;11.10;99.90;;;;;;5043603;28;20470;-66
2022/01/02 07:23:12;;;;;;;2.70;2.50;;;11.10;99.90;;;;;;5044621;28;20442;-67
2022/01/02 07:25:43;;;;;;;3.10;2.80;;;11.10;99.90;;;;;;5045765;28;20459;-67
2022/01/02 07:28:33;;;;;;;2.67;2.17;;;11.10;99.90;;;;;;5044201;28;20444;-67
2022/01/02 07:31:32;;;;;;;2.67;2.27;;;11.10;99.90;;;;;;5028180;28;20460;-66
2022/01/02 07:34:20;;;;;;;4.37;3.10;;;11.10;99.90;;;;;;5045595;28;20471;-66
2022/01/02 07:36:49;;;;;;;2.83;2.60;;;11.10;99.90;;;;;;5045786;28;21016;-67
2022/01/02 07:39:22;;;;;;;2.63;2.40;;;11.10;99.90;;;;;;5028598;28;21083;-67
2022/01/02 07:41:59;;;;;;;3.93;2.60;;;11.10;99.90;;;;;;5042016;28;20437;-67
2022/01/02 07:44:53;;;;;;;3.20;2.90;;;11.10;99.90;;;;;;5045190;28;21008;-69
2022/01/02 07:47:33;;;;;;;4.33;3.60;;;11.10;99.90;;;;;;5048314;28;20444;-67
2022/01/02 07:50:07;;;;;;;4.20;2.10;;;11.10;99.90;;;;;;5047521;28;20985;-67
2022/01/02 07:52:44;;;;;;;3.40;3.10;;;11.10;99.90;;;;;;5066811;28;20467;-67
2022/01/02 07:55:17;;;;;;;2.93;2.63;;;11.10;99.90;;;;;;5052432;28;20475;-68
2022/01/02 07:58:06;;;;;;;2.70;2.50;;;11.10;99.90;;;;;;5050449;28;20509;-67
2022/01/02 08:00:53;;;;;;;3.73;2.90;;;11.10;99.90;;;;;;5033020;28;20467;-67
2022/01/02 08:03:47;;;;;;;2.90;2.40;;;11.10;99.90;;;;;;5019693;28;20565;-66
2022/01/02 08:06:33;;;;;;;3.40;2.43;;;11.10;99.90;;;;;;5049167;28;20688;-66
2022/01/02 08:09:06;;;;;;;3.47;3.00;;;11.10;99.90;;;;;;5048395;28;21000;-66
2022/01/02 08:11:35;;;;;;;3.30;3.00;;;11.10;99.90;;;;;;5046299;28;20465;-66
2022/01/02 08:14:41;;;;;;;2.50;2.27;;;11.10;99.90;;;;;;5030426;28;20471;-66
2022/01/02 08:17:27;;;;;;;2.50;2.30;;;11.10;99.90;;;;;;5040639;28;20439;-66
2022/01/02 08:19:58;;;;;;;2.70;2.50;;;11.10;99.90;;;;;;5046109;28;21054;-66
2022/01/02 08:22:31;;;;;;;2.93;2.17;;;11.10;99.90;;;;;;5047145;28;20458;-67
2022/01/02 08:25:00;;;;;;;5.50;2.80;;;11.10;99.90;;;;;;5044323;28;20487;-67
2022/01/02 08:27:38;;;;;;;4.03;3.23;;;11.10;99.90;;;;;;5038362;28;20967;-66
2022/01/02 08:30:10;;;;;;;2.33;1.90;;;11.00;99.90;;;;;;5050079;28;21002;-67
2022/01/02 08:33:07;;;;;;;3.20;2.30;;;11.10;99.90;;;;;;5032678;28;20431;-66
2022/01/02 08:35:49;;;;;;;4.13;2.80;;;11.10;99.90;;;;;;5036210;28;21047;-67
2022/01/02 08:38:27;;;;;;;3.57;3.27;;;11.10;99.90;;;;;;5029821;28;20429;-67
2022/01/02 08:41:04;;;;;;;3.97;2.57;;;11.00;99.90;;;;;;5030383;28;20473;-67
2022/01/02 08:43:36;;;;;;;3.30;2.70;;;11.10;99.90;;;;;;5018572;28;20500;-68
2022/01/02 08:46:10;;;;;;;3.40;2.70;;;11.10;99.90;;;;;;5045477;28;20501;-67
2022/01/02 08:48:58;;;;;;;3.23;2.57;;;11.10;99.90;;;;;;5061512;28;20527;-68
2022/01/02 08:51:50;;;;;;;2.83;2.30;;;11.10;99.90;;;;;;5049291;28;21161;-67
2022/01/02 08:54:30;;;;;;;2.30;2.10;;;11.10;99.90;;;;;;5051162;28;20574;-67
2022/01/02 08:57:12;;;;;;;3.07;2.17;;;11.10;99.90;;;;;;5063307;28;20438;-67
2022/01/02 08:59:50;;;;;;;4.10;2.40;;;11.10;99.90;;;;;;5063351;28;20475;-67
2022/01/02 09:02:40;;;;;;;4.23;2.90;;;11.10;99.90;;;;;;5048542;28;20461;-67
2022/01/02 09:05:29;;;;;;;3.67;2.30;;;11.10;99.90;;;;;;5063366;28;20494;-67
2022/01/02 09:08:03;;;;;;;3.90;2.70;;;11.10;99.90;;;;;;5064281;28;20438;-67
2022/01/02 09:10:44;;;;;;;2.63;2.40;;;11.10;99.90;;;;;;5066391;28;20897;-67
2022/01/02 09:13:20;;;;;;;3.70;2.93;;;11.10;99.90;;;;;;5063360;28;20499;-67
2022/01/02 09:16:15;;;;;;;2.97;2.47;;;11.10;99.90;;;;;;5050437;28;20799;-67
2022/01/02 09:18:55;;;;;;;2.83;2.60;;;11.10;99.90;;;;;;5064045;28;20478;-67
2022/01/02 09:21:49;;;;;;;3.87;2.57;;;11.10;99.90;;;;;;5065399;28;20493;-67
2022/01/02 09:24:40;;;;;;;2.43;2.17;;;11.10;99.90;;;;;;5069330;28;20998;-68
2022/01/02 09:27:44;;;;;;;3.20;2.67;;;11.10;99.90;;;;;;5072347;28;20446;-67
2022/01/02 09:30:25;;;;;;;4.37;2.60;;;11.10;99.90;;;;;;5065428;28;20474;-67
2022/01/02 09:33:08;;;;;;;3.30;2.17;;;11.10;99.90;;;;;;5052575;28;20470;-68
2022/01/02 09:35:41;;;;;;;2.10;2.00;;;11.10;99.90;;;;;;5071872;28;20514;-68
2022/01/02 09:38:29;;;;;;;2.30;2.00;;;11.10;99.90;;;;;;5048806;28;20724;-67
2022/01/02 09:41:13;;;;;;;2.80;2.50;;;11.10;99.90;;;;;;5057049;28;20470;-67
2022/01/02 09:43:57;;;;;;;2.50;2.30;;;11.10;99.90;;;;;;5048380;28;20895;-67
2022/01/02 09:46:41;;;;;;;2.80;2.30;;;11.10;99.90;;;;;;5048622;28;20474;-66
2022/01/02 09:49:18;;;;;;;2.30;2.10;;;11.10;99.90;;;;;;5065906;28;20489;-66
2022/01/02 09:51:50;;;;;;;2.63;2.43;;;11.10;99.90;;;;;;5051992;28;20449;-66
2022/01/02 09:57:13;;;;;;;2.80;2.40;;;11.10;99.90;;;;;;5069710;28;20439;-66
2022/01/02 09:59:55;;;;;;;2.60;2.40;;;11.10;99.90;;;;;;5055933;28;20873;-67
2022/01/02 10:03:16;;;;;;;3.50;2.37;;;11.10;99.90;;;;;;5051027;28;20447;-67
2022/01/02 10:05:56;;;;;;;2.30;2.10;;;11.10;99.90;;;;;;5069362;28;20489;-65
2022/01/02 10:08:41;;;;;;;2.60;2.40;;;11.10;99.90;;;;;;5055541;28;20545;-66
2022/01/02 10:11:33;;;;;;;2.93;2.60;;;11.10;99.90;;;;;;5055948;28;20440;-66
2022/01/02 10:14:22;;;;;;;2.97;2.60;;;11.10;99.90;;;;;;5031304;28;20466;-67
2022/01/02 10:17:09;;;;;;;3.50;2.20;;;11.10;99.90;;;;;;5046687;28;20494;-66
2022/01/02 10:19:47;;;;;;;2.97;2.50;;;11.10;99.90;;;;;;5086915;28;20561;-66
2022/01/02 10:22:26;;;;;;;2.90;2.53;;;11.10;99.90;;;;;;5053415;28;20457;-68
2022/01/02 10:25:37;;;;;;;3.10;2.63;;;11.10;99.90;;;;;;5049136;28;20577;-66
2022/01/02 10:28:51;;;;;;;3.50;2.47;;;11.10;99.90;;;;;;5025758;28;20826;-66
2022/01/02 10:31:49;;;;;;;2.37;2.10;;;11.10;99.90;;;;;;5065792;28;20438;-66
2022/01/02 10:34:39;;;;;;;2.43;2.23;;;11.10;99.90;;;;;;5053582;28;20482;-67
2022/01/02 10:37:28;;;;;;;3.33;2.70;;;11.10;99.90;;;;;;5053751;28;20444;-67
2022/01/02 10:40:04;;;;;;;2.80;2.60;;;11.10;99.90;;;;;;5077891;28;20461;-66
2022/01/02 10:42:48;;;;;;;2.30;2.10;;;11.20;99.90;;;;;;5066705;28;20473;-67
2022/01/02 10:45:34;;;;;;;2.53;2.33;;;11.10;99.90;;;;;;5055464;28;20482;-67
2022/01/02 10:48:18;;;;;;;3.00;2.20;;;11.20;99.90;;;;;;5058827;28;20447;-66
2022/01/02 10:51:07;;;;;;;3.03;2.60;;;11.20;99.90;;;;;;5054797;28;20462;-66
2022/01/02 10:53:52;;;;;;;2.47;2.23;;;11.20;99.90;;;;;;5073397;28;20470;-66
2022/01/02 10:56:30;;;;;;;3.20;2.40;;;11.20;99.90;;;;;;5053440;28;20464;-66
2022/01/02 10:59:05;;;;;;;3.17;2.60;;;11.20;99.90;;;;;;5063236;28;20521;-66
2022/01/02 11:01:37;;;;;;;6.03;2.70;;;11.20;99.90;;;;;;5031048;28;20470;-66
2022/01/02 11:04:10;;;;;;;3.60;2.40;;;11.20;99.90;;;;;;5039563;28;20909;-66
2022/01/02 11:06:42;;;;;;;3.70;3.07;;;11.20;99.90;;;;;;5074994;28;20502;-66
2022/01/02 11:09:11;;;;;;;2.47;2.27;;;11.20;99.90;;;;;;5020736;28;20495;-66
2022/01/02 11:11:50;;;;;;;4.97;2.20;;;11.20;99.90;;;;;;5027347;28;20439;-66
2022/01/02 11:14:31;;;;;;;3.50;2.63;;;11.20;99.90;;;;;;5058967;28;20526;-66
2022/01/02 11:17:04;;;;;;;4.00;2.80;;;11.20;99.90;;;;;;5025476;28;21087;-66
2022/01/02 11:19:36;;;;;;;4.10;2.80;;;11.20;99.90;;;;;;5046469;28;20485;-66
2022/01/02 11:22:27;;;;;;;2.90;2.40;;;11.20;99.90;;;;;;5068192;28;20526;-65
2022/01/02 11:25:10;;;;;;;3.13;2.57;;;11.20;99.90;;;;;;5052617;28;20467;-66
2022/01/02 11:27:45;;;;;;;5.53;2.87;;;11.20;99.90;;;;;;5054663;28;20442;-67
2022/01/02 11:30:49;;;;;;;3.27;2.97;;;11.20;99.90;;;;;;5044040;28;20478;-67
2022/01/02 11:33:31;;;;;;;3.33;3.03;;;11.20;99.90;;;;;;4971867;28;20427;-66
2022/01/02 11:36:24;;;;;;;3.30;2.43;;;11.20;99.90;;;;;;5059015;28;20524;-67
2022/01/02 11:39:05;;;;;;;2.70;2.50;;;11.20;99.90;;;;;;5057881;28;20482;-66
2022/01/02 11:41:39;;;;;;;4.20;3.23;;;11.20;99.90;;;;;;5077485;28;20463;-67
2022/01/02 11:44:17;;;;;;;3.30;2.50;;;11.20;99.90;;;;;;5069012;28;20527;-66
2022/01/02 11:46:52;;;;;;;3.00;2.70;;;11.20;99.90;;;;;;5079807;28;20491;-67
2022/01/02 11:49:41;;;;;;;3.60;2.47;;;11.20;99.90;;;;;;5058648;28;20461;-66
2022/01/02 11:52:26;;;;;;;3.33;2.73;;;11.20;99.90;;;;;;5045934;28;20455;-67
2022/01/02 11:55:16;;;;;;;3.17;2.67;;;11.20;99.90;;;;;;5046528;28;20484;-66
2022/01/02 11:58:00;;;;;;;3.50;2.80;;;11.20;99.90;;;;;;5047825;28;20435;-66
2022/01/02 12:00:45;;;;;;;3.50;3.17;;;11.20;99.90;;;;;;5036151;28;20812;-66
2022/01/02 12:03:52;;;;;;;4.00;2.63;;;11.20;99.90;;;;;;5033160;28;20466;-66
2022/01/02 12:06:46;;;;;;;2.60;2.40;;;11.20;99.90;;;;;;5077382;28;20443;-67
2022/01/02 12:13:20;;;;;;;3.70;2.73;;;11.20;99.90;;;;;;5042177;28;20453;-66
2022/01/02 12:16:11;;;;;;;2.60;2.40;;;11.20;99.90;;;;;;5058069;28;21031;-66
2022/01/02 12:19:15;;;;;;;;;;;;;;;;;;;;;
2022/01/02 12:25:00;;;;;;;4.50;2.60;;;11.20;99.90;;;;;;5069660;28;20974;-68
2022/01/02 12:27:50;;;;;;;3.97;2.70;;;11.20;99.90;;;;;;5056205;28;20493;-68
2022/01/02 12:30:32;;;;;;;2.83;2.60;;;11.20;99.90;;;;;;5054551;28;20529;-67
2022/01/02 12:33:25;;;;;;;3.20;2.90;;;11.20;99.90;;;;;;5054195;28;21060;-67
2022/01/02 12:36:27;;;;;;;3.70;2.87;;;11.20;99.90;;;;;;5040447;28;20520;-67
2022/01/02 12:39:04;;;;;;;4.80;3.00;;;11.20;99.90;;;;;;5048458;28;20469;-67
2022/01/02 12:41:42;;;;;;;3.27;2.97;;;11.20;99.90;;;;;;5056648;28;20443;-67
2022/01/02 12:44:32;;;;;;;4.03;3.10;;;11.20;99.90;;;;;;5034447;28;20471;-67
2022/01/02 12:47:03;;;;;;;6.27;3.13;;;11.20;99.90;;;;;;5047076;28;20449;-66
2022/01/02 12:49:50;;;;;;;3.07;2.17;;;11.20;99.90;;;;;;5092455;28;20462;-66
2022/01/02 12:52:29;;;;;;;3.43;3.13;;;11.20;99.90;;;;;;5083071;28;20451;-67
2022/01/02 12:55:04;;;;;;;2.57;2.30;;;11.20;99.90;;;;;;5095994;28;20473;-66
2022/01/02 12:57:43;;;;;;;3.23;2.40;;;11.20;99.90;;;;;;5082129;28;20438;-67
2022/01/02 13:00:26;;;;;;;3.73;2.90;;;11.20;99.90;;;;;;5080406;28;21024;-66
2022/01/02 13:03:09;;;;;;;4.80;2.80;;;11.30;99.90;;;;;;5074072;28;20489;-69
2022/01/02 13:08:41;;;;;;;4.27;2.50;;;11.30;99.90;;;;;;5105276;28;20461;-68
2022/01/02 13:11:34;;;;;;;3.77;2.80;;;11.20;99.90;;;;;;5109358;28;20824;-66
2022/01/02 13:14:12;;;;;;;3.13;2.50;;;11.20;99.90;;;;;;5094646;27;21061;-67
2022/01/02 13:17:01;;;;;;;5.27;3.17;;;11.20;99.90;;;;;;5063077;28;20439;-67
2022/01/02 13:19:47;;;;;;;3.10;2.80;;;11.30;99.90;;;;;;5090509;28;20470;-68
2022/01/02 13:22:23;;;;;;;3.57;2.90;;;11.20;99.90;;;;;;5093652;28;20464;-66
2022/01/02 13:25:47;;;;;;;3.30;3.00;;;11.30;99.90;;;;;;5061137;28;20506;-73
2022/01/02 13:28:23;;;;;;;4.83;2.70;;;11.20;99.90;;;;;;5092712;28;20449;-72
2022/01/02 13:31:01;;;;;;;2.60;2.40;;;11.20;99.90;;;;;;5081283;28;20446;-73
2022/01/02 13:33:43;;;;;;;4.73;3.33;;;11.20;99.90;;;;;;5078381;28;20528;-73
2022/01/02 13:36:23;;;;;;;3.10;2.77;;;11.30;99.90;;;;;;5093493;28;20483;-72
2022/01/02 13:39:07;;;;;;;3.40;3.10;;;11.30;99.90;;;;;;5056309;28;20456;-72
2022/01/02 13:42:00;;;;;;;3.00;2.60;;;11.30;99.90;;;;;;5098401;28;20432;-72
2022/01/02 13:44:44;;;;;;;5.17;2.77;;;11.30;99.90;;;;;;5073234;28;20461;-73
2022/01/02 13:47:32;;;;;;;;;;;;;;;;;;;;;
2022/01/02 13:50:31;;;;;;;3.70;2.60;;;11.30;99.90;;;;;;5100320;28;21058;-72
2022/01/02 13:53:21;;;;;;;3.27;2.90;;;11.30;99.90;;;;;;5111190;28;20416;-73
2022/01/02 13:56:12;;;;;;;4.10;2.63;;;11.30;99.90;;;;;;5103949;28;20562;-72
2022/01/02 13:58:48;;;;;;;3.77;2.40;;;11.30;99.90;;;;;;5071021;28;20479;-73
2022/01/02 14:01:50;;;;;;;3.27;2.97;;;11.30;99.90;;;;;;5091595;28;20444;-72
2022/01/02 14:05:02;;;;;;;2.70;2.50;;;11.30;99.90;;;;;;5049085;28;20467;-72
2022/01/02 14:07:36;;;;;;;3.43;2.40;;;11.30;99.90;;;;;;5089913;28;20434;-72
2022/01/02 14:10:47;;;;;;;3.17;2.87;;;11.30;99.90;;;;;;5046807;28;20465;-73
2022/01/02 14:13:27;;;;;;;3.00;2.80;;;11.30;99.90;;;;;;5087906;28;20429;-73
2022/01/02 14:16:07;;;;;;;3.27;2.63;;;11.30;99.90;;;;;;5093470;28;20467;-73
2022/01/02 14:18:47;;;;;;;2.97;2.77;;;11.30;99.90;;;;;;5068514;28;20476;-73
2022/01/02 14:21:30;;;;;;;3.23;2.93;;;11.30;99.90;;;;;;5087045;28;20433;-73
2022/01/02 14:24:06;;;;;;;2.93;2.37;;;11.30;99.90;;;;;;5077661;28;20478;-73
2022/01/02 14:26:52;;;;;;;3.60;3.17;;;11.30;99.90;;;;;;5107581;28;20442;-72
2022/01/02 14:29:24;;;;;;;4.00;2.97;;;11.30;99.90;;;;;;5073857;28;20470;-72
2022/01/02 14:32:11;;;;;;;3.03;2.73;;;11.30;99.90;;;;;;5071286;28;20448;-72
2022/01/02 14:34:42;;;;;;;3.50;3.20;;;11.30;99.90;;;;;;5096983;28;20514;-73
2022/01/02 14:37:16;;;;;;;2.93;2.47;;;11.30;99.90;;;;;;5088537;28;20444;-72
2022/01/02 14:39:52;;;;;;;4.27;3.73;;;11.30;99.90;;;;;;5070017;28;20514;-73
2022/01/02 14:42:24;;;;;;;3.47;3.17;;;11.30;99.90;;;;;;5091087;28;20620;-72
2022/01/02 14:44:56;;;;;;;3.07;2.70;;;11.30;99.90;;;;;;5094497;28;20524;-73
2022/01/02 14:47:38;;;;;;;4.40;3.60;;;11.30;99.90;;;;;;5090708;28;20812;-72
2022/01/02 14:50:11;;;;;;;3.77;3.47;;;11.30;99.90;;;;;;5086286;28;21191;-72
2022/01/02 14:52:49;;;;;;;3.87;3.00;;;11.30;99.90;;;;;;5089821;28;20831;-71